Terminal Aerodrome Forecast
Issued by NWS

Home | Current Version | Previous Version | Text Only | Print | Product List | Glossary On
Versions: 1 2 3 4 5 6 7 8 9 10 11 12
664
FTUS42 KGSP 261733
TAFGMU
TAF
KGMU 261733Z 2618/2718 04007KT P6SM FEW040
     FM270100 03004KT P6SM FEW060 SCT250
     FM271400 34005KT P6SM FEW050=

USA.gov is the U.S. government's official web portal to all federal, state and local government web resources and services.